Comandante Gustavo Kraemer Airport

SBBG · Rio Grande do Sul, Brazilië

METAR historie SBBG · Comandante Gustavo Kraemer Airport

Hieronder zie je METAR's van de afgelopen dagen. Kies een jaar om door oudere METAR's te bladeren, vanaf het jaar 2007.

2 maart 2024

Tijd Code Weer Temp. Zicht Plafond Wind METAR/SPECI
12:00
V
32 °C 10 km+ - 340° 340° 8 kt METAR SBBG 021500Z AUTO 34008KT 290V020 CAVOK 32/22 Q1012
11:00
V
30 °C 10 km+ - 330° 330° 9 kt METAR SBBG 021400Z AUTO 33009KT 300V010 CAVOK 30/21 Q1013
10:00
V
29 °C 10 km+ - 010° 010° 10 kt METAR SBBG 021300Z AUTO 01010KT CAVOK 29/21 Q1013
09:00
V
26 °C 10 km+ - 030° 030° 12 kt METAR SBBG 021200Z AUTO 03012KT CAVOK 26/21 Q1012
08:00
V
23 °C 10 km+ - 040° 040° 12 kt METAR SBBG 021100Z AUTO 04012KT CAVOK 23/20 Q1013
07:00
V
21 °C 10 km+ - 030° 030° 8 kt METAR SBBG 021000Z AUTO 03008KT CAVOK 21/19 Q1013
06:00
V
20 °C 10 km+ - 040° 040° 9 kt METAR SBBG 020900Z AUTO 04009KT CAVOK 20/19 Q1012
05:00
V
21 °C 10 km+ - 040° 040° 10 kt METAR SBBG 020800Z AUTO 04010KT CAVOK 21/19 Q1013
04:00
V
21 °C 10 km+ - 050° 050° 10 kt METAR SBBG 020700Z AUTO 05010KT CAVOK 21/20 Q1013
03:00
V
21 °C 10 km+ - 050° 050° 9 kt METAR SBBG 020600Z AUTO 05009KT CAVOK 21/20 Q1013
02:00
V
21 °C 10 km+ - 050° 050° 10 kt METAR SBBG 020500Z AUTO 05010KT CAVOK 21/20 Q1014
01:00
V
22 °C 10 km+ - 060° 060° 11 kt METAR SBBG 020400Z AUTO 06011KT CAVOK 22/20 Q1015
00:00
V
22 °C 10 km+ - 060° 060° 10 kt METAR SBBG 020300Z AUTO 06010KT CAVOK 22/20 Q1015

1 maart 2024

Tijd Code Weer Temp. Zicht Plafond Wind METAR/SPECI
23:00
V
22 °C 10 km+ - 070° 070° 7 kt METAR SBBG 020200Z AUTO 07007KT CAVOK 22/20 Q1015
22:00
V
23 °C 10 km+ - 070° 070° 7 kt METAR SBBG 020100Z AUTO 07007KT CAVOK 23/19 Q1015
21:00
V
24 °C 10 km+ - 080° 080° 9 kt METAR SBBG 020000Z AUTO 08009KT CAVOK 24/19 Q1014
20:00
V
25 °C 10 km+ - 090° 090° 9 kt METAR SBBG 012300Z AUTO 09009KT CAVOK 25/20 Q1014
18:00
V
30 °C 10 km+ - 090° 090° 6 kt METAR SBBG 012100Z AUTO 09006KT CAVOK 30/18 Q1013
17:00
V
31 °C 10 km+ - 080° 080° 3 kt METAR SBBG 012000Z 08003KT 9999 SCT033 31/18 Q1013
16:00
M
31 °C 10 km+ 2.600 ft 100° 100° 10 kt METAR SBBG 011900Z 10010KT 9999 BKN026 31/21 Q1014
15:00
M
30 °C 10 km+ 2.600 ft 150° 150° 4 kt METAR SBBG 011800Z 15004KT 9999 BKN026 30/20 Q1015
14:00
M
30 °C 10 km+ 2.600 ft 050° 050° 5 kt METAR SBBG 011700Z 05005KT 9999 BKN026 30/17 Q1015
13:15
M
29 °C 10 km+ 2.600 ft 080° 080° 8 kt METAR SBBG 011615Z 08008KT 9999 BKN026 29/20 Q1015
13:00
V
28 °C 10 km+ - 100° 100° 5 kt METAR SBBG 011600Z AUTO 10005KT 060V220 9999 FEW038 28/20 Q1016
12:00
V
28 °C 10 km+ - 080° 080° 7 kt METAR SBBG 011500Z AUTO 08007KT 050V110 9999 SCT031 28/21 Q1016
11:00
M
27 °C 10 km+ 2.000 ft 090° 090° 8 kt METAR SBBG 011400Z 09008KT 9999 BKN020 27/21 Q1017
10:00
M
25 °C 10 km+ 1.800 ft 090° 090° 9 kt METAR SBBG 011300Z 09009KT 9999 BKN018 25/21 Q1017
09:00
V
24 °C 10 km+ - 090° 090° 6 kt METAR SBBG 011200Z 09006KT 9999 FEW009 24/21 Q1016
08:15
V
23 °C 10 km+ - 090° 090° 5 kt METAR SBBG 011115Z 09005KT 9999 FEW008 23/22 Q1016
08:00
V
22 °C 10 km+ - 110° 110° 5 kt METAR SBBG 011100Z AUTO 11005KT CAVOK 22/21 Q1016
07:00
M
20 °C 6 km - 090° 090° 4 kt METAR SBBG 011000Z AUTO 09004KT 6000 NCD 20/20 Q1016
07:01
I
20 °C 2,4 km - 090° 090° 4 kt METAR SBBG 011001Z AUTO 09004KT 2400 BR NSC 20/20 Q1016
06:31
I
20 °C 2,8 km - 060° 060° 3 kt METAR SBBG 010931Z AUTO 06003KT 2800 BR NSC 20/20 Q1016
06:00
V
20 °C 10 km+ - 040° 040° 3 kt METAR SBBG 010900Z AUTO 04003KT CAVOK 20/20 Q1015
05:00
V
20 °C 10 km+ - 100° 100° 4 kt METAR SBBG 010800Z AUTO 10004KT CAVOK 20/20 Q1015
04:00
V
20 °C 10 km+ - 090° 090° 3 kt METAR SBBG 010700Z AUTO 09003KT CAVOK 20/20 Q1014
03:31
V
20 °C 10 km+ - 110° 110° 4 kt METAR SBBG 010631Z AUTO 11004KT CAVOK 20/20 Q1014
03:02
I
20 °C 1,5 km - 080° 080° 3 kt METAR SBBG 010602Z AUTO 08003KT 1500 BR FEW003 20/20 Q1014
03:00
V
20 °C 10 km+ - 070° 070° 3 kt METAR SBBG 010600Z AUTO 07003KT 9999 FEW003 20/20 Q1014
02:00
V
21 °C 10 km+ - 080° 080° 4 kt METAR SBBG 010500Z AUTO 08004KT CAVOK 21/21 Q1014
01:00
V
22 °C 10 km+ - 100° 100° 4 kt METAR SBBG 010400Z AUTO 10004KT CAVOK 22/21 Q1015
00:00
V
23 °C 10 km+ - 090° 090° 5 kt METAR SBBG 010300Z AUTO 09005KT CAVOK 23/22 Q1015

29 februari 2024

Tijd Code Weer Temp. Zicht Plafond Wind METAR/SPECI
23:00
V
24 °C 10 km+ - 100° 100° 6 kt METAR SBBG 010200Z AUTO 10006KT CAVOK 24/23 Q1014
22:00
V
24 °C 10 km+ - 100° 100° 5 kt METAR SBBG 010100Z AUTO 10005KT CAVOK 24/22 Q1014
21:00
V
24 °C 10 km+ - 070° 070° 4 kt METAR SBBG 010000Z AUTO 07004KT CAVOK 24/22 Q1014
19:00
V
26 °C 10 km+ - 160° 160° 4 kt METAR SBBG 292200Z AUTO 16004KT CAVOK 26/22 Q1014
18:00
V
28 °C 10 km+ - 160° 160° 6 kt METAR SBBG 292100Z AUTO 16006KT CAVOK 28/22 Q1013
17:00
V
29 °C 10 km+ 10.000 ft 150° 150° 6 kt METAR SBBG 292000Z 15006KT 9999 SCT026 BKN100 29/22 Q1013
16:00
V
31 °C 10 km+ 10.000 ft 180° 180° 6 kt METAR SBBG 291900Z 18006KT 9999 SCT026 BKN100 31/22 Q1013
15:00
V
31 °C 10 km+ 10.000 ft 170° 170° 4 kt METAR SBBG 291800Z 17004KT 9999 SCT026 BKN100 31/21 Q1013
14:00
V
31 °C 10 km+ - 120° 120° 4 kt METAR SBBG 291700Z 12004KT 9999 SCT023 31/20 Q1013
13:15
V
31 °C 10 km+ - 090° 090° 8 kt METAR SBBG 291615Z 09008KT 9999 SCT023 31/22 Q1014
13:00
V
30 °C 10 km+ - Var Var 4 kt METAR SBBG 291600Z AUTO VRB04KT 9999 FEW031 30/22 Q1014
12:00
M
29 °C 10 km+ 2.300 ft 170° 170° 5 kt METAR SBBG 291500Z AUTO 17005KT 120V250 9999 BKN023 29/23 Q1014
11:00
V
29 °C 10 km+ - 150° 150° 4 kt METAR SBBG 291400Z 15004KT 9999 SCT023 29/23 Q1015
10:00
V
27 °C 10 km+ - 050° 050° 3 kt METAR SBBG 291300Z 05003KT 9999 SCT023 27/22 Q1015
09:00
V
24 °C 10 km+ - 090° 090° 4 kt METAR SBBG 291200Z 09004KT 9999 SCT023 24/22 Q1015
08:15
V
23 °C 10 km+ - 070° 070° 4 kt METAR SBBG 291115Z 07004KT 9999 FEW006 SCT023 23/21 Q1014
08:00
V
23 °C 10 km+ 3.200 ft 070° 070° 6 kt METAR SBBG 291100Z AUTO 07006KT 9999 FEW006 SCT028 BKN032 23/21 Q1014
07:00
M
21 °C 10 km+ 2.800 ft 100° 100° 4 kt METAR SBBG 291000Z AUTO 10004KT 9999 BKN028 21/21 Q1014
06:00
V
21 °C 10 km+ 3.200 ft 080° 080° 4 kt METAR SBBG 290900Z AUTO 08004KT 9999 BKN032 BKN040 21/21 Q1014
05:00
V
21 °C 10 km+ - 060° 060° 6 kt METAR SBBG 290800Z AUTO 06006KT CAVOK 21/21 Q1013
04:00
V
21 °C 10 km+ - 090° 090° 4 kt METAR SBBG 290700Z AUTO 09004KT CAVOK 21/21 Q1013
03:00
V
22 °C 10 km+ - 060° 060° 8 kt METAR SBBG 290600Z AUTO 06008KT CAVOK 22/21 Q1013